Terminal Aerodrome Forecast
Issued by NWS

Home | Current Version | Previous Version | Text Only | Print | Product List | Glossary On
Versions: 1 2 3 4 5 6 7 8 9 10 11 12 13
000
FTUS45 KTFX 272338
TAFLWT
TAF
KLWT 272338Z 2800/2824 10010KT P6SM -SHRA VCTS SCT035CB BKN150
      TEMPO 2801/2805 3SM SHRA SCT015 BKN035
     FM280500 26010KT 5SM -SHRA SCT015 BKN035
     FM280700 26008KT P6SM VCSH SCT025 BKN040
     FM281000 27010KT P6SM SCT040=

USA.gov is the U.S. government's official web portal to all federal, state and local government web resources and services.